Time;durP1;ratioP1;P1;durP2;ratioP2;P2;SDS_P1;SDS_P2;PMS_P1;PMS_P2;Temp;Humidity;BMP_temperature;BMP_pressure;BME280_temperature;BME280_humidity;BME280_pressure;Samples;Min_cycle;Max_cycle;Signal;HPM_P1;HPM_P2
2023/04/06 00:01:46;;;;;;;27.70;17.43;;;4.30;96.90;;;;;;4779026;30;20214;-91
2023/04/06 00:04:12;;;;;;;25.92;15.88;;;4.30;96.20;;;;;;4777775;30;20270;-94
2023/04/06 00:06:38;;;;;;;26.50;16.40;;;4.40;95.40;;;;;;4775372;30;20242;-90
2023/04/06 00:09:04;;;;;;;26.10;14.77;;;4.40;95.90;;;;;;4776505;30;20191;-92
2023/04/06 00:11:29;;;;;;;22.93;14.10;;;4.40;95.20;;;;;;4778676;30;20214;-94
2023/04/06 00:13:55;;;;;;;22.40;14.37;;;4.40;95.20;;;;;;4779715;30;20457;-91
2023/04/06 00:16:21;;;;;;;19.70;12.10;;;4.40;95.30;;;;;;4793538;30;20207;-91
2023/04/06 00:18:49;;;;;;;14.80;10.27;;;4.50;95.80;;;;;;4774110;30;20663;-95
2023/04/06 00:21:15;;;;;;;17.27;10.50;;;4.50;94.80;;;;;;4775632;30;20210;-91
2023/04/06 00:23:41;;;;;;;13.67;10.00;;;4.40;95.40;;;;;;4774460;30;20761;-96
2023/04/06 00:26:08;;;;;;;65.85;31.27;;;4.50;95.70;;;;;;4790426;30;20199;-94
2023/04/06 00:28:34;;;;;;;326.35;116.35;;;4.60;95.40;;;;;;4794467;30;20327;-96
2023/04/06 00:31:00;;;;;;;260.57;89.57;;;4.50;95.40;;;;;;4775233;30;20225;-95
2023/04/06 00:33:25;;;;;;;83.50;35.17;;;4.70;95.20;;;;;;4776655;30;20975;-96
2023/04/06 00:35:51;;;;;;;71.57;29.33;;;4.70;95.60;;;;;;4774096;30;20198;-96
2023/04/06 00:38:17;;;;;;;110.77;36.60;;;4.60;96.30;;;;;;4774046;30;20220;-93
2023/04/06 00:40:44;;;;;;;82.47;34.70;;;4.60;96.00;;;;;;4774300;30;20503;-94
2023/04/06 00:43:11;;;;;;;56.58;29.38;;;4.60;95.60;;;;;;4774347;30;20436;-93
2023/04/06 00:45:42;;;;;;;65.82;30.15;;;4.60;95.30;;;;;;4773824;30;20195;-94
2023/04/06 00:48:08;;;;;;;59.97;29.20;;;4.60;95.60;;;;;;4791178;30;20222;-96
2023/04/06 00:50:34;;;;;;;65.47;33.28;;;4.50;95.70;;;;;;4778586;30;20281;-96
2023/04/06 00:53:00;;;;;;;67.15;35.22;;;4.40;96.20;;;;;;4775409;30;20206;-96
2023/04/06 00:55:29;;;;;;;78.05;33.17;;;4.30;96.40;;;;;;4774154;30;20187;-93
2023/04/06 00:57:58;;;;;;;68.57;30.50;;;4.10;96.90;;;;;;4773924;30;20207;-91
2023/04/06 01:00:24;;;;;;;61.35;28.45;;;4.00;97.10;;;;;;4789839;30;20660;-91
2023/04/06 01:02:50;;;;;;;51.30;26.80;;;4.00;97.00;;;;;;4773898;30;20199;-91
2023/04/06 01:05:16;;;;;;;51.43;26.60;;;3.90;97.10;;;;;;4774838;30;20256;-91
2023/04/06 01:07:41;;;;;;;58.53;25.83;;;3.90;96.80;;;;;;4789467;29;20301;-94
2023/04/06 01:10:07;;;;;;;58.93;25.73;;;3.80;97.30;;;;;;4776743;30;20562;-91
2023/04/06 01:12:33;;;;;;;51.13;26.70;;;3.70;97.50;;;;;;4773734;30;20298;-90
2023/04/06 01:14:59;;;;;;;50.53;25.47;;;3.70;97.60;;;;;;4773866;30;20286;-95
2023/04/06 01:17:25;;;;;;;49.97;25.70;;;3.60;97.80;;;;;;4773799;30;20211;-91
2023/04/06 01:19:53;;;;;;;52.83;25.90;;;3.50;97.50;;;;;;4773727;30;20202;-91
2023/04/06 01:22:19;;;;;;;50.55;26.58;;;3.50;98.10;;;;;;4773468;30;20203;-91
2023/04/06 01:24:45;;;;;;;50.13;27.08;;;3.60;98.30;;;;;;4789918;30;20183;-96
2023/04/06 01:27:11;;;;;;;45.55;26.75;;;3.60;97.50;;;;;;4789545;30;20226;-94
2023/04/06 01:29:40;;;;;;;44.13;26.80;;;3.40;97.20;;;;;;4789457;30;20560;-95
2023/04/06 01:32:07;;;;;;;56.03;26.75;;;3.40;98.40;;;;;;4773144;30;20450;-96
2023/04/06 01:34:32;;;;;;;53.63;29.63;;;3.50;98.80;;;;;;4773332;30;20233;-94
2023/04/06 01:36:58;;;;;;;43.73;26.53;;;3.50;98.30;;;;;;4773472;30;20260;-91
2023/04/06 01:39:24;;;;;;;57.17;35.30;;;3.50;98.40;;;;;;4773442;30;20689;-90
2023/04/06 01:41:49;;;;;;;57.60;34.20;;;3.30;97.30;;;;;;4773362;30;20256;-96
2023/04/06 01:44:18;;;;;;;41.90;30.40;;;3.30;98.30;;;;;;4773261;30;20198;-91
2023/04/06 01:46:44;;;;;;;53.05;34.15;;;3.30;98.20;;;;;;4775856;30;20589;-90
2023/04/06 01:49:09;;;;;;;54.80;36.00;;;3.30;98.40;;;;;;4777093;30;20194;-95
2023/04/06 01:51:35;;;;;;;257.10;132.40;;;3.40;98.30;;;;;;4776691;30;20442;-96
2023/04/06 01:54:01;;;;;;;89.80;53.83;;;3.20;97.90;;;;;;4777062;30;20277;-96
2023/04/06 01:56:27;;;;;;;85.03;52.50;;;3.30;99.20;;;;;;4781116;30;20201;-96
2023/04/06 01:58:52;;;;;;;112.27;59.80;;;3.40;98.90;;;;;;4784707;30;20463;-95
2023/04/06 02:01:18;;;;;;;94.03;49.13;;;3.40;98.60;;;;;;4786249;30;20203;-96
2023/04/06 02:03:44;;;;;;;97.20;50.60;;;3.40;98.30;;;;;;4801455;30;20180;-93
2023/04/06 02:06:09;;;;;;;153.83;84.47;;;3.30;97.90;;;;;;4780427;29;20207;-96
2023/04/06 02:08:35;;;;;;;67.03;35.87;;;3.20;98.30;;;;;;4776340;30;20590;-93
2023/04/06 02:11:01;;;;;;;95.67;54.30;;;3.20;98.60;;;;;;4776470;30;20199;-94
2023/04/06 02:13:27;;;;;;;67.15;40.35;;;3.10;97.50;;;;;;4776227;30;20550;-94
2023/04/06 02:15:52;;;;;;;63.33;40.53;;;3.00;97.80;;;;;;4776473;30;20194;-96
2023/04/06 02:18:18;;;;;;;76.47;43.87;;;3.10;98.60;;;;;;4776264;30;20187;-91
2023/04/06 02:20:44;;;;;;;124.27;74.30;;;3.20;99.30;;;;;;4777684;30;20363;-91
2023/04/06 02:23:11;;;;;;;149.45;99.38;;;3.00;98.40;;;;;;4795008;30;20181;-94
2023/04/06 02:25:36;;;;;;;103.93;66.93;;;3.00;97.70;;;;;;4793855;30;20225;-93
2023/04/06 02:28:02;;;;;;;71.60;47.00;;;3.00;97.80;;;;;;4777003;30;20230;-96
2023/04/06 02:30:29;;;;;;;49.40;34.07;;;3.10;97.60;;;;;;4780228;30;20447;-94
2023/04/06 02:32:55;;;;;;;34.70;24.23;;;3.20;97.20;;;;;;4779559;30;20454;-96
2023/04/06 02:35:21;;;;;;;37.10;25.33;;;3.20;97.10;;;;;;4776650;30;20187;-96
2023/04/06 02:37:46;;;;;;;32.53;22.33;;;3.30;97.60;;;;;;4777252;30;20276;-96
2023/04/06 02:40:13;;;;;;;44.63;27.33;;;3.20;97.70;;;;;;4776184;30;20194;-95
2023/04/06 02:42:39;;;;;;;38.63;26.33;;;3.20;98.10;;;;;;4776118;30;20210;-93
2023/04/06 02:45:05;;;;;;;43.30;28.73;;;3.10;98.50;;;;;;4775905;30;20183;-96
2023/04/06 02:47:31;;;;;;;46.65;32.33;;;3.10;97.70;;;;;;4776050;30;20235;-95
2023/04/06 02:49:56;;;;;;;42.97;27.60;;;3.10;97.70;;;;;;4791655;30;20207;-94
2023/04/06 02:52:23;;;;;;;43.70;31.60;;;3.10;97.90;;;;;;4775532;30;20252;-91
2023/04/06 02:54:50;;;;;;;39.92;30.67;;;3.10;98.00;;;;;;4775744;30;20240;-93
2023/04/06 02:57:16;;;;;;;46.47;30.35;;;3.10;97.10;;;;;;4774627;30;20242;-94
2023/04/06 02:59:42;;;;;;;32.70;21.50;;;3.10;97.10;;;;;;4776001;30;20229;-93
2023/04/06 03:02:08;;;;;;;34.67;23.57;;;3.10;96.90;;;;;;4775618;30;20443;-94
2023/04/06 03:04:33;;;;;;;37.87;27.23;;;3.10;97.00;;;;;;4778893;30;20191;-92
2023/04/06 03:06:59;;;;;;;37.67;22.47;;;3.10;97.20;;;;;;4790017;30;20247;-91
2023/04/06 03:09:27;;;;;;;34.78;19.63;;;3.00;97.00;;;;;;4775552;30;20211;-91
2023/04/06 03:11:52;;;;;;;27.35;18.85;;;2.90;97.10;;;;;;4775265;30;20214;-93
2023/04/06 03:14:21;;;;;;;34.97;21.00;;;2.80;97.20;;;;;;4775431;30;20290;-95
2023/04/06 03:16:50;;;;;;;41.17;24.55;;;2.70;97.30;;;;;;4775081;30;20741;-94
2023/04/06 03:19:16;;;;;;;35.40;21.48;;;2.60;97.40;;;;;;4775162;30;20195;-94
2023/04/06 03:21:42;;;;;;;53.70;28.30;;;2.60;97.40;;;;;;4774859;30;20230;-90
2023/04/06 03:24:08;;;;;;;42.35;25.73;;;2.60;97.40;;;;;;4775589;30;20226;-91
2023/04/06 03:26:33;;;;;;;35.57;22.93;;;2.60;97.40;;;;;;4774973;30;20245;-91
2023/04/06 03:28:59;;;;;;;37.37;21.90;;;2.60;97.40;;;;;;4790720;30;20815;-91
2023/04/06 03:31:26;;;;;;;33.53;19.77;;;2.60;97.20;;;;;;4775009;30;20455;-93
2023/04/06 03:33:52;;;;;;;27.88;20.23;;;2.60;97.20;;;;;;4795343;30;20217;-91
2023/04/06 03:36:17;;;;;;;27.70;18.67;;;2.60;97.20;;;;;;4794900;30;20203;-94
2023/04/06 03:38:43;;;;;;;32.80;20.17;;;2.60;97.10;;;;;;4777956;30;20193;-94
2023/04/06 03:41:09;;;;;;;32.13;22.70;;;2.60;97.10;;;;;;4774752;30;20317;-91
2023/04/06 03:43:35;;;;;;;29.80;21.70;;;2.60;97.00;;;;;;4774947;30;20248;-95
2023/04/06 03:46:01;;;;;;;29.08;19.77;;;2.60;97.00;;;;;;4774694;30;20492;-91
2023/04/06 03:48:26;;;;;;;32.40;22.03;;;2.60;96.90;;;;;;4774893;30;20223;-93
2023/04/06 03:50:52;;;;;;;36.40;22.47;;;2.50;96.80;;;;;;4774416;30;20253;-91
2023/04/06 03:53:18;;;;;;;28.13;21.50;;;2.50;97.00;;;;;;4779183;30;20260;-91
2023/04/06 03:55:43;;;;;;;34.23;21.63;;;2.50;97.20;;;;;;4793927;30;20263;-91
2023/04/06 03:58:09;;;;;;;28.90;19.30;;;2.40;97.00;;;;;;4775742;30;20230;-93
2023/04/06 04:00:35;;;;;;;29.53;20.60;;;2.40;97.00;;;;;;4774344;30;20224;-95
2023/04/06 04:03:02;;;;;;;28.87;19.20;;;2.40;97.10;;;;;;4777079;30;20858;-90
2023/04/06 04:05:27;;;;;;;27.17;21.20;;;2.40;97.10;;;;;;4777513;30;20451;-91
2023/04/06 04:07:53;;;;;;;31.10;19.00;;;2.40;97.00;;;;;;4776173;30;20255;-96
2023/04/06 04:10:19;;;;;;;31.23;19.47;;;2.40;96.90;;;;;;4781436;30;20442;-93
2023/04/06 04:12:45;;;;;;;30.63;20.00;;;2.40;96.80;;;;;;4783289;30;20213;-95
2023/04/06 04:15:10;;;;;;;25.87;18.87;;;2.40;96.80;;;;;;4791326;30;20230;-96
2023/04/06 04:17:36;;;;;;;31.60;18.33;;;2.40;96.70;;;;;;4782535;30;20712;-95
2023/04/06 04:20:02;;;;;;;28.63;19.60;;;2.50;96.70;;;;;;4774404;30;20282;-96
2023/04/06 04:22:28;;;;;;;31.83;21.50;;;2.40;96.60;;;;;;4774653;30;20252;-93
2023/04/06 04:24:53;;;;;;;38.03;21.43;;;2.50;96.60;;;;;;4774044;30;20964;-93
2023/04/06 04:27:20;;;;;;;26.10;17.93;;;2.40;96.50;;;;;;4774856;30;20576;-96
2023/04/06 04:29:46;;;;;;;33.15;18.50;;;2.70;99.30;;;;;;4785669;30;20665;-96
2023/04/06 04:32:12;;;;;;;29.60;19.53;;;3.30;99.90;;;;;;4788980;29;20211;-94
2023/04/06 04:34:40;;;;;;;30.17;19.30;;;3.20;96.70;;;;;;4789789;30;20650;-96
2023/04/06 04:37:06;;;;;;;32.90;19.38;;;3.00;96.40;;;;;;4788917;29;20439;-93
2023/04/06 04:39:32;;;;;;;32.35;20.60;;;2.80;96.40;;;;;;4788672;30;20199;-96
2023/04/06 04:41:57;;;;;;;36.33;19.88;;;2.80;96.60;;;;;;4773861;30;20230;-96
2023/04/06 04:44:23;;;;;;;30.53;20.00;;;2.70;96.60;;;;;;4788515;30;20276;-93
2023/04/06 04:46:49;;;;;;;29.80;19.47;;;2.70;96.70;;;;;;4771907;30;20727;-93
2023/04/06 04:49:15;;;;;;;30.93;20.47;;;2.70;96.50;;;;;;4781830;30;20195;-91
2023/04/06 04:51:40;;;;;;;31.30;19.67;;;2.60;96.50;;;;;;4783081;30;20199;-92
2023/04/06 04:54:06;;;;;;;33.07;22.37;;;2.60;96.60;;;;;;4787825;30;20187;-90
2023/04/06 04:56:32;;;;;;;40.10;24.23;;;2.60;96.60;;;;;;4771788;30;20519;-91
2023/04/06 04:58:57;;;;;;;48.17;25.90;;;2.60;96.80;;;;;;4772555;30;20202;-90
2023/04/06 05:01:23;;;;;;;36.77;25.47;;;2.60;96.90;;;;;;4773512;30;20286;-91
2023/04/06 05:03:49;;;;;;;38.60;24.77;;;2.50;96.70;;;;;;4773008;30;20689;-94
2023/04/06 05:06:15;;;;;;;40.83;24.80;;;2.40;96.90;;;;;;4789000;29;20278;-91
2023/04/06 05:08:41;;;;;;;39.87;24.73;;;2.30;97.00;;;;;;4772830;30;20454;-94
2023/04/06 05:11:07;;;;;;;37.35;23.88;;;2.20;97.10;;;;;;4788395;30;20439;-91
2023/04/06 05:13:33;;;;;;;39.77;25.30;;;2.20;97.30;;;;;;4773356;30;20532;-93
2023/04/06 05:15:58;;;;;;;47.50;28.17;;;2.20;97.30;;;;;;4773219;30;20202;-95
2023/04/06 05:18:25;;;;;;;55.17;31.73;;;2.20;97.30;;;;;;4775064;30;20183;-92
2023/04/06 05:20:51;;;;;;;54.55;32.35;;;2.20;97.50;;;;;;4780090;30;20186;-95
2023/04/06 05:23:17;;;;;;;74.60;34.85;;;2.30;97.50;;;;;;4782319;30;20217;-93
2023/04/06 05:25:43;;;;;;;75.87;36.87;;;2.30;97.50;;;;;;4776951;30;20207;-90
2023/04/06 05:28:08;;;;;;;88.83;40.30;;;2.30;97.50;;;;;;4779196;30;20261;-92
2023/04/06 05:30:35;;;;;;;84.13;40.97;;;2.40;97.60;;;;;;4777331;30;20662;-95
2023/04/06 05:33:01;;;;;;;100.78;43.63;;;2.40;98.00;;;;;;4792202;30;20199;-91
2023/04/06 05:35:27;;;;;;;82.43;37.88;;;2.50;98.00;;;;;;4777192;30;20191;-92
2023/04/06 05:37:52;;;;;;;58.80;34.50;;;2.60;98.00;;;;;;4776214;30;20203;-91
2023/04/06 05:40:18;;;;;;;54.17;31.30;;;2.60;98.00;;;;;;4776283;30;20317;-96
2023/04/06 05:42:44;;;;;;;50.43;28.80;;;2.70;98.00;;;;;;4775108;30;20574;-94
2023/04/06 05:45:11;;;;;;;52.33;27.88;;;2.70;98.10;;;;;;4767681;30;20239;-94
2023/04/06 05:47:37;;;;;;;45.95;26.25;;;2.80;98.40;;;;;;4778412;30;20306;-94
2023/04/06 05:50:03;;;;;;;47.97;28.25;;;2.90;98.30;;;;;;4761363;30;20195;-91
2023/04/06 05:52:29;;;;;;;51.25;27.02;;;2.90;98.50;;;;;;4789593;29;20207;-95
2023/04/06 05:54:55;;;;;;;41.17;24.40;;;3.10;98.90;;;;;;4790494;30;20658;-91
2023/04/06 05:57:21;;;;;;;39.90;24.33;;;3.20;98.60;;;;;;4774474;30;20229;-92
2023/04/06 05:59:46;;;;;;;45.75;25.48;;;3.30;98.30;;;;;;4775367;30;20209;-90
2023/04/06 06:02:12;;;;;;;37.17;25.83;;;3.40;98.30;;;;;;4779727;30;20203;-91
2023/04/06 06:04:38;;;;;;;44.93;26.73;;;3.50;98.30;;;;;;4771607;30;20677;-91
2023/04/06 06:07:03;;;;;;;40.60;24.13;;;3.60;98.30;;;;;;4785631;29;20330;-95
2023/04/06 06:09:29;;;;;;;39.93;25.77;;;3.60;98.30;;;;;;4788906;30;20202;-95
2023/04/06 06:11:55;;;;;;;39.23;24.60;;;3.60;98.70;;;;;;4789020;29;20242;-96
2023/04/06 06:14:21;;;;;;;29.43;20.70;;;3.70;98.90;;;;;;4773240;30;20218;-95
2023/04/06 06:16:47;;;;;;;30.63;21.35;;;3.80;98.90;;;;;;4771634;30;20500;-95
2023/04/06 06:19:13;;;;;;;28.40;20.83;;;3.90;99.30;;;;;;4787493;30;20222;-92
2023/04/06 06:21:39;;;;;;;32.47;21.43;;;3.90;99.20;;;;;;4784626;29;20535;-92
2023/04/06 06:24:05;;;;;;;33.15;20.52;;;4.00;99.10;;;;;;4786272;29;20187;-91
2023/04/06 06:26:31;;;;;;;32.58;22.08;;;4.10;99.50;;;;;;4784017;29;21137;-92
2023/04/06 06:28:57;;;;;;;42.43;23.17;;;4.30;99.10;;;;;;4788267;30;20230;-93
2023/04/06 06:31:22;;;;;;;32.70;18.50;;;4.40;99.30;;;;;;4771335;30;20259;-96
2023/04/06 06:33:51;;;;;;;34.53;19.37;;;4.50;98.80;;;;;;4771866;30;20571;-96
2023/04/06 06:36:18;;;;;;;32.70;18.25;;;4.60;98.90;;;;;;4772850;30;20231;-92
2023/04/06 06:38:44;;;;;;;34.13;16.85;;;4.60;98.50;;;;;;4774412;30;20191;-92
2023/04/06 06:41:10;;;;;;;19.45;14.13;;;4.80;98.60;;;;;;4783084;29;20685;-94
2023/04/06 06:43:36;;;;;;;18.50;13.43;;;4.90;98.60;;;;;;4771009;30;20198;-95
2023/04/06 06:46:02;;;;;;;20.37;13.90;;;5.00;97.80;;;;;;4789508;29;20571;-92
2023/04/06 06:48:28;;;;;;;21.77;14.13;;;5.20;98.00;;;;;;4785146;30;21004;-92
2023/04/06 06:50:54;;;;;;;18.03;13.30;;;5.30;97.60;;;;;;4787567;29;20252;-92
2023/04/06 06:53:20;;;;;;;18.90;13.60;;;5.40;97.40;;;;;;4788174;30;20172;-91
2023/04/06 06:55:46;;;;;;;18.97;12.20;;;5.60;97.30;;;;;;4772968;30;20747;-96
2023/04/06 06:58:11;;;;;;;16.53;12.60;;;5.70;97.20;;;;;;4773751;30;20252;-92
2023/04/06 07:00:37;;;;;;;16.13;12.17;;;5.80;97.10;;;;;;4789715;30;20198;-92
2023/04/06 07:03:03;;;;;;;14.87;12.43;;;5.90;97.00;;;;;;4789548;30;20595;-92
2023/04/06 07:05:28;;;;;;;17.23;13.03;;;6.00;96.80;;;;;;4775077;30;20841;-96
2023/04/06 07:07:55;;;;;;;13.93;12.03;;;6.10;96.60;;;;;;4780192;30;20238;-96
2023/04/06 07:10:21;;;;;;;14.50;11.45;;;6.10;96.20;;;;;;4794605;29;20191;-95
2023/04/06 07:12:47;;;;;;;16.83;12.60;;;6.20;96.10;;;;;;4795365;30;20224;-94
2023/04/06 07:15:13;;;;;;;19.70;14.00;;;6.20;95.70;;;;;;4779208;30;20479;-92
2023/04/06 07:17:41;;;;;;;15.67;12.50;;;6.30;95.70;;;;;;4791594;29;20203;-92
2023/04/06 07:20:07;;;;;;;16.70;12.30;;;6.50;96.20;;;;;;4796818;30;20424;-95
2023/04/06 07:22:32;;;;;;;18.27;11.95;;;6.60;95.50;;;;;;4774345;30;20215;-95
2023/04/06 07:24:58;;;;;;;13.27;11.30;;;6.70;95.70;;;;;;4776892;30;20248;-95
2023/04/06 07:27:24;;;;;;;12.13;10.73;;;6.80;94.90;;;;;;4775035;30;20219;-95
2023/04/06 07:29:50;;;;;;;14.20;11.90;;;6.90;94.90;;;;;;4777017;30;20191;-96
2023/04/06 07:32:15;;;;;;;16.33;11.93;;;7.00;94.80;;;;;;4787773;30;20211;-92
2023/04/06 07:34:41;;;;;;;14.00;11.27;;;7.10;95.00;;;;;;4774730;30;20369;-94
2023/04/06 07:37:07;;;;;;;13.10;10.90;;;7.20;94.60;;;;;;4790733;30;20206;-95
2023/04/06 07:39:34;;;;;;;24.50;11.17;;;7.40;94.60;;;;;;4774897;30;20195;-96
2023/04/06 07:42:00;;;;;;;14.15;11.00;;;7.50;94.40;;;;;;4774449;30;20207;-95
2023/04/06 07:44:26;;;;;;;14.63;10.93;;;7.60;93.80;;;;;;4774528;30;20195;-96
2023/04/06 07:46:51;;;;;;;14.33;10.90;;;7.80;93.00;;;;;;4767977;30;20258;-96
2023/04/06 07:49:17;;;;;;;12.73;10.37;;;7.90;93.00;;;;;;4775742;30;20203;-93
2023/04/06 07:51:43;;;;;;;12.93;11.57;;;7.90;91.10;;;;;;4774100;30;20282;-92
2023/04/06 07:54:09;;;;;;;17.10;11.10;;;8.00;91.80;;;;;;4794976;30;20435;-96
2023/04/06 07:56:34;;;;;;;14.47;10.53;;;8.10;91.20;;;;;;4776189;30;20260;-95
2023/04/06 07:59:00;;;;;;;14.33;10.90;;;8.20;91.20;;;;;;4772831;30;20198;-95
2023/04/06 08:01:28;;;;;;;15.73;10.53;;;8.30;90.60;;;;;;4772301;30;20212;-92
2023/04/06 08:03:55;;;;;;;15.77;10.95;;;8.30;90.80;;;;;;4771387;30;20187;-94
2023/04/06 08:06:21;;;;;;;13.30;11.32;;;8.40;91.00;;;;;;4768989;30;20236;-94
2023/04/06 08:08:47;;;;;;;15.15;11.15;;;8.50;91.50;;;;;;4769506;30;20224;-96
2023/04/06 08:11:12;;;;;;;13.37;11.50;;;8.60;90.70;;;;;;4769499;30;20211;-96
2023/04/06 08:13:38;;;;;;;13.93;9.77;;;8.70;90.80;;;;;;4767913;30;20330;-96
2023/04/06 08:16:04;;;;;;;15.13;11.70;;;8.90;89.30;;;;;;4768840;30;20199;-93
2023/04/06 08:18:30;;;;;;;15.23;11.15;;;9.00;90.10;;;;;;4771133;30;20678;-95
2023/04/06 08:20:56;;;;;;;16.37;10.60;;;9.10;90.00;;;;;;4770087;30;20196;-96
2023/04/06 08:23:22;;;;;;;13.00;10.20;;;9.20;89.30;;;;;;4773085;30;20435;-96
2023/04/06 08:25:48;;;;;;;12.33;10.60;;;9.40;89.40;;;;;;4766404;30;20196;-92
2023/04/06 08:28:14;;;;;;;16.87;11.60;;;9.50;88.30;;;;;;4767266;30;20261;-92
2023/04/06 08:30:43;;;;;;;16.80;11.47;;;9.70;89.00;;;;;;4766556;30;20223;-96
2023/04/06 08:33:10;;;;;;;14.10;10.40;;;9.80;85.90;;;;;;4768668;30;20290;-93
2023/04/06 08:35:36;;;;;;;11.52;10.32;;;9.90;85.40;;;;;;4769018;30;20207;-96
2023/04/06 08:38:01;;;;;;;13.03;11.20;;;9.90;85.60;;;;;;4768746;30;20697;-95
2023/04/06 08:40:27;;;;;;;14.07;10.77;;;10.10;86.10;;;;;;4769514;30;20191;-96
2023/04/06 08:42:56;;;;;;;15.25;10.65;;;10.50;86.00;;;;;;4767694;30;20236;-95
2023/04/06 08:45:22;;;;;;;14.30;11.15;;;11.30;85.80;;;;;;4768804;30;20283;-96
2023/04/06 08:47:52;;;;;;;12.05;10.32;;;12.10;84.60;;;;;;4768895;30;20223;-96
2023/04/06 08:50:18;;;;;;;12.27;10.07;;;12.80;83.00;;;;;;4769816;30;20549;-95
2023/04/06 08:52:47;;;;;;;13.10;10.90;;;13.40;80.90;;;;;;4770021;30;20214;-96
2023/04/06 08:55:14;;;;;;;13.83;11.80;;;13.70;78.90;;;;;;4769260;30;20436;-93
2023/04/06 08:57:41;;;;;;;12.90;11.00;;;13.50;77.30;;;;;;4769661;30;20447;-93
2023/04/06 09:00:09;;;;;;;16.97;12.03;;;13.10;77.50;;;;;;4771279;30;20447;-92
2023/04/06 09:02:42;;;;;;;12.07;10.33;;;12.70;78.50;;;;;;4772586;30;20456;-92
2023/04/06 09:05:09;;;;;;;13.40;10.47;;;12.50;78.80;;;;;;4783094;30;20435;-96
2023/04/06 09:07:36;;;;;;;15.20;11.55;;;12.40;79.40;;;;;;4768537;30;20505;-95
2023/04/06 09:10:03;;;;;;;16.17;10.83;;;12.50;79.60;;;;;;4767627;30;20200;-96
2023/04/06 09:12:31;;;;;;;12.40;10.87;;;12.60;79.00;;;;;;4766619;30;20448;-92
2023/04/06 09:14:58;;;;;;;13.45;11.15;;;12.50;78.70;;;;;;4766447;30;20470;-95
2023/04/06 09:17:33;;;;;;;11.30;9.77;;;12.50;78.90;;;;;;4766475;30;20204;-96
2023/04/06 09:20:00;;;;;;;10.67;9.30;;;12.40;77.40;;;;;;4763272;30;20466;-96
2023/04/06 09:22:38;;;;;;;12.07;10.30;;;12.30;78.20;;;;;;4767082;30;20455;-95
2023/04/06 09:25:04;;;;;;;16.23;11.83;;;12.20;78.60;;;;;;4765107;30;20528;-93
2023/04/06 09:27:31;;;;;;;13.68;10.73;;;12.20;77.50;;;;;;4767389;29;20492;-93
2023/04/06 09:30:06;;;;;;;13.60;10.70;;;12.10;77.00;;;;;;4767044;30;20189;-93
2023/04/06 09:32:32;;;;;;;13.10;11.10;;;12.10;78.00;;;;;;4760939;30;20894;-95
2023/04/06 09:35:10;;;;;;;15.67;11.10;;;11.90;77.30;;;;;;4763669;30;20440;-96
2023/04/06 09:37:36;;;;;;;13.60;10.37;;;11.60;77.80;;;;;;4798387;29;20521;-93
2023/04/06 09:40:03;;;;;;;11.70;10.07;;;11.50;78.00;;;;;;4765859;30;20958;-92
2023/04/06 09:42:29;;;;;;;16.50;11.48;;;11.40;77.80;;;;;;4761824;30;20218;-95
2023/04/06 09:44:55;;;;;;;14.70;10.43;;;11.30;77.90;;;;;;4761777;30;20196;-92
2023/04/06 09:47:23;;;;;;;15.30;10.60;;;11.20;78.00;;;;;;4762180;30;20243;-93
2023/04/06 09:49:53;;;;;;;14.00;9.55;;;11.00;77.60;;;;;;4765549;30;20287;-95
2023/04/06 09:52:20;;;;;;;14.10;11.20;;;11.00;77.50;;;;;;4765185;30;20307;-93
2023/04/06 09:54:50;;;;;;;13.35;10.40;;;10.90;79.30;;;;;;4764882;30;20611;-95
2023/04/06 09:57:27;;;;;;;13.65;10.57;;;11.00;79.00;;;;;;4763555;30;20204;-95
2023/04/06 10:00:11;;;;;;;13.60;10.98;;;11.10;81.00;;;;;;4763558;30;20199;-96
2023/04/06 10:03:00;;;;;;;16.65;11.57;;;11.20;79.00;;;;;;4769258;30;20223;-93
2023/04/06 10:05:38;;;;;;;25.88;18.80;;;11.10;78.30;;;;;;4772769;30;20271;-96
2023/04/06 10:08:08;;;;;;;14.00;10.63;;;11.10;79.50;;;;;;4767214;30;20268;-93
2023/04/06 10:10:34;;;;;;;13.10;11.70;;;11.10;78.90;;;;;;4768089;30;20226;-96
2023/04/06 10:13:00;;;;;;;15.07;11.50;;;11.20;80.30;;;;;;4767222;30;20207;-96
2023/04/06 10:15:31;;;;;;;17.23;12.32;;;11.40;78.70;;;;;;4767072;30;20466;-92
2023/04/06 10:17:58;;;;;;;15.20;11.38;;;11.40;79.20;;;;;;4779926;30;20311;-95
2023/04/06 10:20:46;;;;;;;13.80;10.80;;;11.40;80.30;;;;;;4754145;30;20480;-92
2023/04/06 10:23:19;;;;;;;15.25;11.38;;;11.50;80.80;;;;;;4780006;30;20758;-94
2023/04/06 10:26:01;;;;;;;13.82;11.23;;;11.60;79.50;;;;;;4764745;30;20200;-93
2023/04/06 10:28:32;;;;;;;14.15;10.95;;;11.70;79.00;;;;;;4768296;30;20678;-96
2023/04/06 10:31:04;;;;;;;15.13;11.23;;;11.70;78.30;;;;;;4786504;29;20184;-94
2023/04/06 10:33:30;;;;;;;15.25;11.55;;;11.60;78.00;;;;;;4771992;30;20176;-93
2023/04/06 10:35:57;;;;;;;15.35;11.95;;;11.50;79.30;;;;;;4762954;30;20188;-93
2023/04/06 10:38:43;;;;;;;11.90;10.10;;;11.50;78.80;;;;;;4769538;30;20658;-96
2023/04/06 10:41:10;;;;;;;18.63;11.15;;;11.60;78.70;;;;;;4768783;30;20295;-94
2023/04/06 10:43:38;;;;;;;14.90;10.65;;;11.50;79.20;;;;;;4765453;30;20237;-96
2023/04/06 10:46:06;;;;;;;11.82;10.50;;;11.40;78.50;;;;;;4773002;24;20227;-83
2023/04/06 10:48:46;;;;;;;13.10;11.05;;;11.50;78.20;;;;;;4779808;30;20615;-82
2023/04/06 10:51:14;;;;;;;15.32;12.10;;;11.50;77.70;;;;;;4768254;29;20214;-82
2023/04/06 10:53:48;;;;;;;13.27;10.45;;;11.60;78.30;;;;;;4793361;29;20646;-83
2023/04/06 10:56:18;;;;;;;12.80;11.05;;;11.70;79.00;;;;;;4788748;29;20207;-83
2023/04/06 10:58:55;;;;;;;11.20;10.00;;;11.80;78.50;;;;;;4770666;29;20183;-82
2023/04/06 11:01:23;;;;;;;13.13;11.27;;;11.90;76.70;;;;;;4781754;29;20591;-82
2023/04/06 11:03:55;;;;;;;15.88;12.10;;;11.80;76.80;;;;;;4765762;30;20188;-82
2023/04/06 11:06:30;;;;;;;14.75;10.35;;;11.80;77.30;;;;;;4767507;29;20282;-82
2023/04/06 11:08:57;;;;;;;11.88;10.60;;;11.70;77.60;;;;;;4780662;29;20203;-81
2023/04/06 11:11:26;;;;;;;14.68;10.05;;;11.70;78.10;;;;;;4778893;29;20298;-82
2023/04/06 11:13:59;;;;;;;12.55;10.60;;;11.70;78.30;;;;;;4769509;29;20490;-82
2023/04/06 11:16:30;;;;;;;11.80;10.15;;;11.80;77.20;;;;;;4770434;29;20226;-82
2023/04/06 11:19:02;;;;;;;12.55;10.48;;;11.70;78.20;;;;;;4773517;29;20222;-82
2023/04/06 11:21:48;;;;;;;12.70;11.25;;;11.70;78.40;;;;;;4775517;29;20234;-83
2023/04/06 11:24:19;;;;;;;11.65;9.40;;;11.80;79.80;;;;;;4780947;29;20720;-83
2023/04/06 11:26:50;;;;;;;13.85;10.65;;;11.70;79.30;;;;;;4786384;29;20313;-81
2023/04/06 11:29:30;;;;;;;20.52;11.30;;;11.60;78.20;;;;;;4777219;29;20187;-82
2023/04/06 11:32:05;;;;;;;14.57;11.55;;;11.70;77.60;;;;;;4776433;29;20211;-83
2023/04/06 11:34:40;;;;;;;12.50;10.75;;;11.90;77.50;;;;;;4776044;29;20187;-83
2023/04/06 11:37:11;;;;;;;14.20;12.13;;;12.00;76.80;;;;;;4776330;29;20225;-82
2023/04/06 11:39:52;;;;;;;12.63;11.30;;;12.20;76.60;;;;;;4778919;29;20426;-82
2023/04/06 11:42:25;;;;;;;14.95;12.50;;;12.30;75.60;;;;;;4780172;29;20505;-82
2023/04/06 11:44:54;;;;;;;19.92;13.20;;;12.30;75.80;;;;;;4792186;29;20187;-82
2023/04/06 11:47:20;;;;;;;13.47;12.07;;;12.20;73.00;;;;;;4791688;29;20274;-83
2023/04/06 11:49:47;;;;;;;15.35;13.50;;;11.90;72.90;;;;;;4785437;29;20495;-83
2023/04/06 11:52:24;;;;;;;19.23;13.32;;;11.80;72.50;;;;;;4785038;29;20814;-82
2023/04/06 11:54:52;;;;;;;14.50;12.23;;;11.70;73.90;;;;;;4774985;29;20220;-83
2023/04/06 11:57:19;;;;;;;17.88;13.95;;;11.70;74.10;;;;;;4776750;30;20237;-83
2023/04/06 11:59:45;;;;;;;15.70;12.85;;;11.70;74.30;;;;;;4768081;30;20183;-83
2023/04/06 12:02:11;;;;;;;14.30;12.88;;;11.60;74.50;;;;;;4769574;30;20284;-83
2023/04/06 12:04:37;;;;;;;14.65;13.15;;;11.50;74.80;;;;;;4789067;29;20194;-82
2023/04/06 12:07:04;;;;;;;21.38;13.75;;;11.50;76.00;;;;;;4770515;30;20223;-83
2023/04/06 12:09:30;;;;;;;15.75;13.50;;;11.70;74.70;;;;;;4770979;29;20817;-82
2023/04/06 12:11:57;;;;;;;14.40;12.20;;;11.70;75.10;;;;;;4784911;29;20294;-83
2023/04/06 12:14:23;;;;;;;14.52;12.48;;;11.70;73.70;;;;;;4782304;29;20479;-82
2023/04/06 12:16:48;;;;;;;17.02;12.80;;;11.80;75.20;;;;;;4781503;30;20215;-83
2023/04/06 12:19:15;;;;;;;18.70;12.90;;;11.70;74.80;;;;;;4769458;30;20777;-83
2023/04/06 12:21:40;;;;;;;17.75;13.05;;;11.70;75.70;;;;;;4769405;29;20211;-82
2023/04/06 12:24:06;;;;;;;14.33;12.07;;;11.80;76.10;;;;;;4784782;29;20198;-82
2023/04/06 12:26:32;;;;;;;14.00;12.10;;;11.90;75.80;;;;;;4770181;30;20262;-82
2023/04/06 12:29:06;;;;;;;13.30;11.73;;;12.00;77.10;;;;;;4767103;30;20510;-82
2023/04/06 12:31:35;;;;;;;17.83;12.10;;;12.10;76.50;;;;;;4768377;30;20315;-82
2023/04/06 12:34:03;;;;;;;15.13;12.68;;;12.20;77.00;;;;;;4767642;30;20191;-82